createdAt,value
2023-03-31T00:00:01.767Z,10.9
2023-03-31T00:01:01.352Z,10.9
2023-03-31T00:02:01.934Z,11
2023-03-31T00:03:01.573Z,10.9
2023-03-31T00:04:01.420Z,10.9
2023-03-31T00:05:01.930Z,10.9
2023-03-31T00:06:01.396Z,10.9
2023-03-31T00:07:01.967Z,10.9
2023-03-31T00:08:01.553Z,10.9
2023-03-31T00:09:01.146Z,10.9
2023-03-31T00:10:16.342Z,10.9
2023-03-31T00:11:01.275Z,10.8
2023-03-31T00:12:01.882Z,10.8
2023-03-31T00:13:01.482Z,10.8
2023-03-31T00:14:02.076Z,10.7
2023-03-31T00:15:01.681Z,10.7
2023-03-31T00:16:01.308Z,10.7
2023-03-31T00:17:01.898Z,10.7
2023-03-31T00:18:01.544Z,10.7
2023-03-31T00:19:02.187Z,10.7
2023-03-31T00:20:01.846Z,10.7
2023-03-31T00:21:02.459Z,10.7
2023-03-31T00:22:01.282Z,10.7
2023-03-31T00:23:01.872Z,10.7
2023-03-31T00:24:01.128Z,10.7
2023-03-31T00:25:01.717Z,10.7
2023-03-31T00:26:01.331Z,10.7
2023-03-31T00:27:01.922Z,10.7
2023-03-31T00:28:01.509Z,10.6
2023-03-31T00:29:02.079Z,10.7
2023-03-31T00:30:01.668Z,10.7
2023-03-31T00:31:01.427Z,10.7
2023-03-31T00:32:01.908Z,10.7
2023-03-31T00:33:01.518Z,10.7
2023-03-31T00:34:02.077Z,10.7
2023-03-31T00:35:01.669Z,10.7
2023-03-31T00:36:01.284Z,10.7
2023-03-31T00:37:01.833Z,10.7
2023-03-31T00:38:01.449Z,10.7
2023-03-31T00:39:02.005Z,10.7
2023-03-31T00:40:01.639Z,10.7
2023-03-31T00:41:01.392Z,10.7
2023-03-31T00:42:01.759Z,10.7
2023-03-31T00:43:01.348Z,10.7
2023-03-31T00:44:01.922Z,10.8
2023-03-31T00:45:01.675Z,10.8
2023-03-31T00:46:02.131Z,10.8
2023-03-31T00:47:01.751Z,10.8
2023-03-31T00:48:01.367Z,10.9
2023-03-31T00:49:01.914Z,10.9
2023-03-31T00:50:01.528Z,10.9
2023-03-31T00:51:02.095Z,10.8
2023-03-31T00:52:01.707Z,10.8
2023-03-31T00:53:01.333Z,10.8
2023-03-31T00:54:01.912Z,10.8
2023-03-31T00:55:01.781Z,10.8
2023-03-31T00:56:02.099Z,10.8
2023-03-31T00:57:01.723Z,10.8
2023-03-31T00:58:01.312Z,10.8
2023-03-31T00:59:01.888Z,10.8
2023-03-31T01:00:01.567Z,10.8
2023-03-31T01:01:02.083Z,10.8
2023-03-31T01:02:01.684Z,10.9
2023-03-31T01:03:01.301Z,10.9
2023-03-31T01:04:02.096Z,10.9
2023-03-31T01:05:01.531Z,11
2023-03-31T01:06:01.108Z,10.9
2023-03-31T01:07:01.686Z,11
2023-03-31T01:08:01.329Z,11
2023-03-31T01:09:02.372Z,11
2023-03-31T01:10:01.541Z,11.1
2023-03-31T01:11:02.098Z,11.1
2023-03-31T01:12:01.687Z,11.1
2023-03-31T01:13:01.281Z,11.1
2023-03-31T01:14:01.877Z,11.1
2023-03-31T01:15:01.485Z,11.2
2023-03-31T01:16:02.072Z,11.1
2023-03-31T01:17:01.714Z,11.1
2023-03-31T01:18:01.372Z,11.1
2023-03-31T01:19:01.889Z,11.1
2023-03-31T01:20:01.499Z,11.1
2023-03-31T01:21:02.063Z,11
2023-03-31T01:22:01.653Z,11.1
2023-03-31T01:23:01.247Z,11.1
2023-03-31T01:24:01.819Z,11.1
2023-03-31T01:25:01.443Z,11.1
2023-03-31T01:26:02.034Z,11.1
2023-03-31T01:27:01.621Z,11.1
2023-03-31T01:28:01.208Z,11.1
2023-03-31T01:29:01.772Z,11.1
2023-03-31T01:30:01.382Z,11
2023-03-31T01:31:01.969Z,11.1
2023-03-31T01:32:01.610Z,11.1
2023-03-31T01:33:01.184Z,11
2023-03-31T01:34:01.758Z,11.1
2023-03-31T01:35:01.373Z,11
2023-03-31T01:36:01.986Z,11
2023-03-31T01:37:01.580Z,11
2023-03-31T01:38:01.165Z,11
2023-03-31T01:39:01.732Z,10.9
2023-03-31T01:40:01.333Z,10.8
2023-03-31T01:41:01.933Z,10.8
2023-03-31T01:42:01.553Z,10.8
2023-03-31T01:43:01.110Z,10.8
2023-03-31T01:44:01.691Z,10.8
2023-03-31T01:45:01.288Z,10.8
2023-03-31T01:46:01.916Z,10.8
2023-03-31T01:47:01.502Z,10.7
2023-03-31T01:48:02.119Z,10.7
2023-03-31T01:49:01.779Z,10.7
2023-03-31T01:50:01.309Z,10.7
2023-03-31T01:51:01.925Z,10.7
2023-03-31T01:52:01.617Z,10.6
2023-03-31T01:53:01.096Z,10.6
2023-03-31T01:54:01.671Z,10.6
2023-03-31T01:55:01.558Z,10.6
2023-03-31T01:56:01.858Z,10.5
2023-03-31T01:57:01.539Z,10.6
2023-03-31T01:58:02.311Z,10.5
2023-03-31T01:59:01.912Z,10.5
2023-03-31T02:00:01.327Z,10.6
2023-03-31T02:01:01.908Z,10.5
2023-03-31T02:02:01.742Z,10.6
2023-03-31T02:03:02.110Z,10.6
2023-03-31T02:04:01.843Z,10.6
2023-03-31T02:05:01.333Z,10.6
2023-03-31T02:06:01.880Z,10.6
2023-03-31T02:07:01.484Z,10.6
2023-03-31T02:08:01.098Z,10.6
2023-03-31T02:09:01.623Z,10.5
2023-03-31T02:10:01.230Z,10.6
2023-03-31T02:11:01.814Z,10.6
2023-03-31T02:12:01.423Z,10.6
2023-03-31T02:13:02.160Z,10.6
2023-03-31T02:14:01.658Z,10.6
2023-03-31T02:15:01.210Z,10.6
2023-03-31T02:16:01.809Z,10.5
2023-03-31T02:17:01.441Z,10.6
2023-03-31T02:18:02.193Z,10.6
2023-03-31T02:19:01.646Z,10.6
2023-03-31T02:20:01.207Z,10.6
2023-03-31T02:21:01.794Z,10.6
2023-03-31T02:22:01.395Z,10.6
2023-03-31T02:23:02.118Z,10.7
2023-03-31T02:24:01.620Z,10.6
2023-03-31T02:25:01.209Z,10.6
2023-03-31T02:26:01.788Z,10.6
2023-03-31T02:27:01.386Z,10.6
2023-03-31T02:28:02.133Z,10.6
2023-03-31T02:29:01.612Z,10.5
2023-03-31T02:30:01.229Z,10.5
2023-03-31T02:31:01.769Z,10.6
2023-03-31T02:32:01.359Z,10.5
2023-03-31T02:33:01.987Z,10.6
2023-03-31T02:34:01.593Z,10.5
2023-03-31T02:35:01.180Z,10.5
2023-03-31T02:36:01.828Z,10.5
2023-03-31T02:37:01.406Z,10.4
2023-03-31T02:38:02.018Z,10.5
2023-03-31T02:39:01.649Z,10.5
2023-03-31T02:40:01.214Z,10.4
2023-03-31T02:41:01.761Z,10.4
2023-03-31T02:42:01.351Z,10.4
2023-03-31T02:43:01.936Z,10.4
2023-03-31T02:44:01.553Z,10.4
2023-03-31T02:45:01.117Z,10.4
2023-03-31T02:46:01.847Z,10.4
2023-03-31T02:47:01.382Z,10.4
2023-03-31T02:48:01.981Z,10.3
2023-03-31T02:49:01.614Z,10.3
2023-03-31T02:50:01.193Z,10.3
2023-03-31T02:51:01.811Z,10.3
2023-03-31T02:52:01.431Z,10.2
2023-03-31T02:53:01.985Z,10.3
2023-03-31T02:54:01.580Z,10.2
2023-03-31T02:55:01.176Z,10.3
2023-03-31T02:56:01.726Z,10.3
2023-03-31T02:57:01.327Z,10.3
2023-03-31T02:58:01.889Z,10.3
2023-03-31T02:59:01.475Z,10.3
2023-03-31T03:00:02.086Z,10.2
2023-03-31T03:01:01.758Z,10.3
2023-03-31T03:02:01.387Z,10.3
2023-03-31T03:03:01.953Z,10.2
2023-03-31T03:04:01.508Z,10.2
2023-03-31T03:05:02.094Z,10.3
2023-03-31T03:06:03.167Z,10.2
2023-03-31T03:07:01.261Z,10.2
2023-03-31T03:08:01.852Z,10.3
2023-03-31T03:09:01.491Z,10.2
2023-03-31T03:10:02.020Z,10.3
2023-03-31T03:11:01.620Z,10.3
2023-03-31T03:12:01.227Z,10.3
2023-03-31T03:13:01.784Z,10.3
2023-03-31T03:14:01.378Z,10.4
2023-03-31T03:15:01.960Z,10.3
2023-03-31T03:16:01.547Z,10.3
2023-03-31T03:17:01.160Z,10.3
2023-03-31T03:18:01.726Z,10.3
2023-03-31T03:19:01.334Z,10.4
2023-03-31T03:20:01.911Z,10.4
2023-03-31T03:21:01.507Z,10.4
2023-03-31T03:22:02.112Z,10.4
2023-03-31T03:23:01.761Z,10.4
2023-03-31T03:24:01.679Z,10.4
2023-03-31T03:25:01.956Z,10.4
2023-03-31T03:26:01.749Z,10.4
2023-03-31T03:27:01.567Z,10.5
2023-03-31T03:28:01.725Z,10.5
2023-03-31T03:29:01.680Z,10.5
2023-03-31T03:30:01.921Z,10.4
2023-03-31T03:31:01.826Z,10.4
2023-03-31T03:32:02.097Z,10.4
2023-03-31T03:33:02.035Z,10.3
2023-03-31T03:34:01.757Z,10.4
2023-03-31T03:35:01.944Z,10.4
2023-03-31T03:36:01.884Z,10.4
2023-03-31T03:37:01.143Z,10.4
2023-03-31T03:38:02.211Z,10.3
2023-03-31T03:39:01.356Z,10.4
2023-03-31T03:40:02.069Z,10.4
2023-03-31T03:41:01.964Z,10.3
2023-03-31T03:42:01.170Z,10.3
2023-03-31T03:43:01.761Z,10.3
2023-03-31T03:44:01.354Z,10.3
2023-03-31T03:45:01.991Z,10.3
2023-03-31T03:46:01.590Z,10.3
2023-03-31T03:47:01.153Z,10.3
2023-03-31T03:48:01.787Z,10.3
2023-03-31T03:49:01.378Z,10.3
2023-03-31T03:50:01.993Z,10.3
2023-03-31T03:51:01.581Z,10.3
2023-03-31T03:52:01.175Z,10.3
2023-03-31T03:53:01.743Z,10.2
2023-03-31T03:54:01.352Z,10.3
2023-03-31T03:55:01.990Z,10.2
2023-03-31T03:56:01.620Z,10.2
2023-03-31T03:57:01.169Z,10.2
2023-03-31T03:58:01.724Z,10.2
2023-03-31T03:59:01.317Z,10.2
2023-03-31T04:00:01.886Z,10.2
2023-03-31T04:01:01.496Z,10.2
2023-03-31T04:02:02.077Z,10.1
2023-03-31T04:03:01.770Z,10.2
2023-03-31T04:04:01.321Z,10.1
2023-03-31T04:05:01.940Z,10.2
2023-03-31T04:06:01.561Z,10.1
2023-03-31T04:07:02.109Z,10.1
2023-03-31T04:08:01.700Z,10.1
2023-03-31T04:09:01.287Z,10.1
2023-03-31T04:10:01.907Z,10.1
2023-03-31T04:11:01.508Z,10.2
2023-03-31T04:12:02.105Z,10.2
2023-03-31T04:13:01.706Z,10.2
2023-03-31T04:14:01.300Z,10.2
2023-03-31T04:15:01.913Z,10.1
2023-03-31T04:16:01.530Z,10.2
2023-03-31T04:17:02.121Z,10.2
2023-03-31T04:18:01.782Z,10.1
2023-03-31T04:19:01.327Z,10.2
2023-03-31T04:20:01.919Z,10.2
2023-03-31T04:21:01.515Z,10.2
2023-03-31T04:22:02.115Z,10.2
2023-03-31T04:23:01.722Z,10.1
2023-03-31T04:24:01.368Z,10.1
2023-03-31T04:25:01.892Z,10.1
2023-03-31T04:26:01.480Z,10
2023-03-31T04:27:02.053Z,10
2023-03-31T04:28:01.654Z,10.1
2023-03-31T04:29:01.303Z,10
2023-03-31T04:30:01.860Z,10
2023-03-31T04:31:01.463Z,10
2023-03-31T04:32:02.078Z,10
2023-03-31T04:33:01.735Z,10
2023-03-31T04:34:01.289Z,10
2023-03-31T04:35:01.847Z,10
2023-03-31T04:36:01.516Z,10
2023-03-31T04:37:02.033Z,10
2023-03-31T04:38:01.647Z,10
2023-03-31T04:39:01.341Z,10
2023-03-31T04:40:01.847Z,10.1
2023-03-31T04:41:01.437Z,10
2023-03-31T04:42:02.014Z,10.1
2023-03-31T04:43:01.606Z,10
2023-03-31T04:44:01.178Z,10
2023-03-31T04:45:01.785Z,10.1
2023-03-31T04:46:01.404Z,10.1
2023-03-31T04:47:01.969Z,10.1
2023-03-31T04:48:01.602Z,10
2023-03-31T04:49:01.150Z,10.1
2023-03-31T04:50:01.748Z,10.1
2023-03-31T04:51:01.345Z,10.1
2023-03-31T04:52:01.932Z,10.1
2023-03-31T04:53:01.528Z,10.1
2023-03-31T04:54:01.149Z,10
2023-03-31T04:55:01.710Z,10
2023-03-31T04:56:01.302Z,10
2023-03-31T04:57:01.922Z,10
2023-03-31T04:58:01.525Z,10
2023-03-31T04:59:01.125Z,10.1
2023-03-31T05:00:01.680Z,10.1
2023-03-31T05:01:01.277Z,10.1
2023-03-31T05:02:01.867Z,10.1
2023-03-31T05:03:01.554Z,10.1
2023-03-31T05:04:02.052Z,10.1
2023-03-31T05:05:01.663Z,10.1
2023-03-31T05:06:01.260Z,10.1
2023-03-31T05:07:01.843Z,10.1
2023-03-31T05:08:01.440Z,10.1
2023-03-31T05:09:02.016Z,10.1
2023-03-31T05:10:01.969Z,10.2
2023-03-31T05:11:01.179Z,10.2
2023-03-31T05:12:01.767Z,10.2
2023-03-31T05:13:01.357Z,10.2
2023-03-31T05:14:01.940Z,10.2
2023-03-31T05:15:01.548Z,10.2
2023-03-31T05:16:02.158Z,10.2
2023-03-31T05:17:01.843Z,10.2
2023-03-31T05:18:01.359Z,10.2
2023-03-31T05:19:01.929Z,10.1
2023-03-31T05:20:01.552Z,10.1
2023-03-31T05:21:01.147Z,10.1
2023-03-31T05:22:01.691Z,10.2
2023-03-31T05:23:01.280Z,10.1
2023-03-31T05:24:01.854Z,10.2
2023-03-31T05:25:01.463Z,10.1
2023-03-31T05:26:02.083Z,10
2023-03-31T05:27:01.685Z,10
2023-03-31T05:28:01.278Z,10
2023-03-31T05:29:01.868Z,10
2023-03-31T05:30:01.485Z,10
2023-03-31T05:31:02.048Z,10
2023-03-31T05:32:01.652Z,10
2023-03-31T05:33:01.275Z,10
2023-03-31T05:34:01.816Z,10
2023-03-31T05:35:01.445Z,10
2023-03-31T05:36:02.042Z,10
2023-03-31T05:37:01.662Z,9.9
2023-03-31T05:38:01.231Z,10
2023-03-31T05:39:01.804Z,10
2023-03-31T05:40:01.418Z,10
2023-03-31T05:41:01.976Z,10
2023-03-31T05:42:01.600Z,10
2023-03-31T05:43:01.149Z,10
2023-03-31T05:44:01.716Z,10
2023-03-31T05:45:01.332Z,10
2023-03-31T05:46:01.932Z,10
2023-03-31T05:47:01.529Z,10
2023-03-31T05:48:02.140Z,10
2023-03-31T05:49:01.797Z,10
2023-03-31T05:50:01.327Z,10
2023-03-31T05:51:01.917Z,10
2023-03-31T05:52:01.545Z,10.1
2023-03-31T05:53:01.127Z,10.2
2023-03-31T05:54:01.718Z,10.2
2023-03-31T05:55:01.334Z,10.2
2023-03-31T05:56:01.897Z,10.2
2023-03-31T05:57:01.533Z,10.2
2023-03-31T05:58:02.119Z,10.2
2023-03-31T05:59:01.719Z,10.2
2023-03-31T06:00:01.350Z,10.2
2023-03-31T06:01:01.919Z,10.3
2023-03-31T06:02:01.639Z,10.3
2023-03-31T06:03:01.199Z,10.3
2023-03-31T06:04:01.764Z,10.3
2023-03-31T06:05:01.399Z,10.3
2023-03-31T06:06:01.947Z,10.3
2023-03-31T06:07:01.561Z,10.3
2023-03-31T06:08:01.110Z,10.3
2023-03-31T06:09:01.684Z,10.4
2023-03-31T06:10:01.279Z,10.4
2023-03-31T06:11:02.001Z,10.4
2023-03-31T06:12:01.538Z,10.4
2023-03-31T06:13:01.109Z,10.4
2023-03-31T06:14:01.721Z,10.4
2023-03-31T06:15:01.323Z,10.3
2023-03-31T06:16:01.909Z,10.3
2023-03-31T06:17:01.550Z,10.4
2023-03-31T06:18:02.175Z,10.3
2023-03-31T06:19:01.805Z,10.3
2023-03-31T06:20:02.074Z,10.3
2023-03-31T06:21:01.876Z,10.3
2023-03-31T06:22:01.507Z,10.4
2023-03-31T06:23:02.051Z,10.4
2023-03-31T06:24:01.688Z,10.3
2023-03-31T06:25:01.285Z,10.3
2023-03-31T06:26:02.057Z,10.3
2023-03-31T06:27:01.538Z,10.4
2023-03-31T06:28:02.097Z,10.3
2023-03-31T06:29:01.737Z,10.4
2023-03-31T06:30:01.350Z,10.3
2023-03-31T06:31:01.903Z,10.4
2023-03-31T06:32:01.538Z,10.5
2023-03-31T06:33:02.106Z,10.5
2023-03-31T06:34:01.736Z,10.5
2023-03-31T06:35:01.325Z,10.5
2023-03-31T06:36:01.970Z,10.5
2023-03-31T06:37:01.579Z,10.5
2023-03-31T06:38:01.144Z,10.5
2023-03-31T06:39:01.740Z,10.5
2023-03-31T06:40:01.332Z,10.4
2023-03-31T06:41:01.953Z,10.3
2023-03-31T06:42:01.545Z,10.3
2023-03-31T06:43:01.153Z,10.3
2023-03-31T06:44:01.741Z,10.3
2023-03-31T06:45:01.349Z,10.3
2023-03-31T06:46:02.072Z,10.2
2023-03-31T06:47:01.629Z,10.2
2023-03-31T06:48:01.209Z,10.1
2023-03-31T06:49:01.763Z,10.1
2023-03-31T06:50:01.379Z,10.1
2023-03-31T06:51:01.974Z,10.1
2023-03-31T06:52:01.576Z,10
2023-03-31T06:53:01.162Z,10.1
2023-03-31T06:54:01.752Z,10
2023-03-31T06:55:01.354Z,10
2023-03-31T06:56:01.954Z,10.1
2023-03-31T06:57:01.577Z,10.1
2023-03-31T06:58:01.163Z,10.1
2023-03-31T06:59:01.719Z,10.1
2023-03-31T07:00:01.308Z,10
2023-03-31T07:01:01.932Z,10
2023-03-31T07:02:01.607Z,10
2023-03-31T07:03:01.225Z,10
2023-03-31T07:04:01.714Z,10.1
2023-03-31T07:05:01.313Z,10
2023-03-31T07:06:01.903Z,10
2023-03-31T07:07:01.849Z,10
2023-03-31T07:08:01.578Z,9.9
2023-03-31T07:09:01.191Z,10
2023-03-31T07:10:01.797Z,10
2023-03-31T07:11:01.460Z,10
2023-03-31T07:12:02.058Z,10
2023-03-31T07:13:02.706Z,10
2023-03-31T07:14:01.217Z,10.1
2023-03-31T07:15:01.812Z,10
2023-03-31T07:16:01.457Z,10
2023-03-31T07:17:02.003Z,10
2023-03-31T07:18:01.673Z,10
2023-03-31T07:19:01.213Z,10
2023-03-31T07:20:01.758Z,10
2023-03-31T07:21:01.351Z,10.1
2023-03-31T07:22:01.954Z,10
2023-03-31T07:23:01.543Z,10.1
2023-03-31T07:24:01.115Z,10.1
2023-03-31T07:25:01.721Z,10
2023-03-31T07:26:01.336Z,10
2023-03-31T07:27:01.939Z,10.1
2023-03-31T07:28:01.549Z,10.1
2023-03-31T07:29:01.130Z,10.2
2023-03-31T07:30:01.705Z,10.2
2023-03-31T07:31:01.291Z,10.2
2023-03-31T07:32:02.031Z,10.2
2023-03-31T07:33:01.552Z,10.2
2023-03-31T07:34:01.135Z,10.2
2023-03-31T07:35:01.696Z,10.2
2023-03-31T07:36:11.547Z,10.1
2023-03-31T07:37:01.871Z,10.1
2023-03-31T07:38:01.486Z,10
2023-03-31T07:39:02.041Z,10
2023-03-31T07:40:01.638Z,10.1
2023-03-31T07:41:08.166Z,10
2023-03-31T07:42:01.768Z,10
2023-03-31T07:43:01.382Z,10
2023-03-31T07:44:01.943Z,10
2023-03-31T07:45:01.560Z,10
2023-03-31T07:46:01.167Z,10.1
2023-03-31T07:47:01.711Z,10.1
2023-03-31T07:48:01.359Z,10
2023-03-31T07:49:01.894Z,10.1
2023-03-31T07:50:01.529Z,10.1
2023-03-31T07:51:02.084Z,10.2
2023-03-31T07:52:01.678Z,10.2
2023-03-31T07:53:01.294Z,10.2
2023-03-31T07:54:01.860Z,10.3
2023-03-31T07:55:01.466Z,10.2
2023-03-31T07:56:02.036Z,10.2
2023-03-31T07:57:01.707Z,10.2
2023-03-31T07:58:01.289Z,10.2
2023-03-31T07:59:01.886Z,10.2
2023-03-31T08:00:01.505Z,10.2
2023-03-31T08:01:02.086Z,10.1
2023-03-31T08:02:01.715Z,10.1
2023-03-31T08:03:01.372Z,10.2
2023-03-31T08:04:01.923Z,10.3
2023-03-31T08:05:01.537Z,10.3
2023-03-31T08:06:01.153Z,10.4
2023-03-31T08:07:01.705Z,10.5
2023-03-31T08:08:01.344Z,10.6
2023-03-31T08:09:01.880Z,10.6
2023-03-31T08:10:01.480Z,10.5
2023-03-31T08:11:02.061Z,10.5
2023-03-31T08:12:01.707Z,10.4
2023-03-31T08:13:01.334Z,10.5
2023-03-31T08:14:01.891Z,10.4
2023-03-31T08:15:01.493Z,10.4
2023-03-31T08:16:02.105Z,10.5
2023-03-31T08:17:01.776Z,10.5
2023-03-31T08:18:01.759Z,10.5
2023-03-31T08:19:01.699Z,10.3
2023-03-31T08:20:05.268Z,10.3
2023-03-31T08:21:01.843Z,10.2
2023-03-31T08:22:01.581Z,10.3
2023-03-31T08:23:02.028Z,10.3
2023-03-31T08:24:01.617Z,10.3
2023-03-31T08:25:01.213Z,10.4
2023-03-31T08:26:01.915Z,10.4
2023-03-31T08:27:01.451Z,10.5
2023-03-31T08:28:02.022Z,10.6
2023-03-31T08:29:01.609Z,10.7
2023-03-31T08:30:01.377Z,10.8
2023-03-31T08:31:01.805Z,10.8
2023-03-31T08:32:01.509Z,10.8
2023-03-31T08:33:02.084Z,10.8
2023-03-31T08:34:01.659Z,10.8
2023-03-31T08:35:01.692Z,10.7
2023-03-31T08:36:02.315Z,10.6
2023-03-31T08:37:01.500Z,10.7
2023-03-31T08:38:02.089Z,10.7
2023-03-31T08:39:01.677Z,10.8
2023-03-31T08:40:01.285Z,10.8
2023-03-31T08:41:01.869Z,10.7
2023-03-31T08:42:01.607Z,10.7
2023-03-31T08:43:02.050Z,10.7
2023-03-31T08:44:01.670Z,10.7
2023-03-31T08:45:01.269Z,10.5
2023-03-31T08:46:01.880Z,10.6
2023-03-31T08:47:01.790Z,10.7
2023-03-31T08:48:02.090Z,10.7
2023-03-31T08:49:01.798Z,10.8
2023-03-31T08:50:01.319Z,10.8
2023-03-31T08:51:01.894Z,10.8
2023-03-31T08:52:01.504Z,10.8
2023-03-31T08:53:02.067Z,10.7
2023-03-31T08:54:01.690Z,10.7
2023-03-31T08:55:01.284Z,10.7
2023-03-31T08:56:01.990Z,10.6
2023-03-31T08:57:01.561Z,10.5
2023-03-31T08:58:01.128Z,10.5
2023-03-31T08:59:01.700Z,10.7
2023-03-31T09:00:01.296Z,10.8
2023-03-31T09:01:01.999Z,10.8
2023-03-31T09:02:01.644Z,10.9
2023-03-31T09:03:01.182Z,10.9
2023-03-31T09:04:03.112Z,10.9
2023-03-31T09:05:01.251Z,10.9
2023-03-31T09:06:01.844Z,11
2023-03-31T09:07:01.428Z,10.9
2023-03-31T09:08:02.034Z,11.1
2023-03-31T09:09:01.723Z,11.3
2023-03-31T09:10:01.267Z,11.3
2023-03-31T09:11:01.814Z,11.3
2023-03-31T09:12:01.424Z,11.3
2023-03-31T09:13:02.019Z,11.3
2023-03-31T09:14:01.622Z,11.5
2023-03-31T09:15:01.201Z,11.6
2023-03-31T09:16:01.848Z,11.6
2023-03-31T09:17:01.516Z,11.8
2023-03-31T09:18:02.029Z,11.8
2023-03-31T09:19:01.708Z,11.8
2023-03-31T09:20:01.297Z,11.9
2023-03-31T09:21:01.861Z,11.9
2023-03-31T09:22:01.450Z,12.1
2023-03-31T09:23:02.038Z,12.2
2023-03-31T09:24:01.628Z,12.2
2023-03-31T09:25:01.252Z,12.1
2023-03-31T09:26:01.871Z,12.2
2023-03-31T09:27:01.460Z,12.2
2023-03-31T09:28:02.039Z,12.1
2023-03-31T09:29:01.663Z,12
2023-03-31T09:30:01.285Z,12
2023-03-31T09:31:02.055Z,12.1
2023-03-31T09:32:01.582Z,12.1
2023-03-31T09:33:02.145Z,12.1
2023-03-31T09:34:01.742Z,12
2023-03-31T09:35:01.334Z,11.9
2023-03-31T09:36:02.001Z,11.8
2023-03-31T09:37:01.596Z,11.7
2023-03-31T09:38:01.166Z,11.5
2023-03-31T09:39:01.753Z,11.4
2023-03-31T09:40:01.359Z,11.5
2023-03-31T09:41:01.945Z,11.4
2023-03-31T09:42:01.618Z,11.4
2023-03-31T09:43:01.164Z,11.3
2023-03-31T09:44:01.743Z,11.3
2023-03-31T09:45:01.332Z,11.3
2023-03-31T09:46:09.500Z,11.3
2023-03-31T09:47:01.508Z,11.3
2023-03-31T09:48:01.140Z,11.3
2023-03-31T09:49:01.729Z,11.3
2023-03-31T09:50:01.316Z,11.5
2023-03-31T09:51:01.912Z,11.5
2023-03-31T09:52:01.529Z,11.4
2023-03-31T09:53:02.083Z,11.4
2023-03-31T09:54:01.671Z,11.4
2023-03-31T09:55:01.309Z,11.4
2023-03-31T09:56:01.851Z,11.5
2023-03-31T09:57:01.473Z,11.6
2023-03-31T09:58:02.049Z,11.6
2023-03-31T09:59:01.684Z,11.7
2023-03-31T10:00:01.236Z,11.7
2023-03-31T10:01:01.864Z,11.8
2023-03-31T10:02:01.527Z,11.8
2023-03-31T10:03:02.085Z,11.8
2023-03-31T10:04:01.735Z,11.8
2023-03-31T10:05:01.310Z,11.7
2023-03-31T10:06:01.880Z,11.8
2023-03-31T10:07:01.485Z,11.8
2023-03-31T10:08:02.052Z,11.8
2023-03-31T10:09:01.664Z,11.9
2023-03-31T10:10:01.255Z,11.9
2023-03-31T10:11:01.842Z,12
2023-03-31T10:12:01.435Z,11.9
2023-03-31T10:13:02.075Z,11.8
2023-03-31T10:14:01.724Z,11.8
2023-03-31T10:15:01.260Z,11.9
2023-03-31T10:16:01.845Z,12
2023-03-31T10:17:01.454Z,12
2023-03-31T10:18:02.076Z,12.1
2023-03-31T10:19:01.733Z,12.2
2023-03-31T10:20:01.280Z,12.1
2023-03-31T10:21:01.875Z,12.2
2023-03-31T10:22:01.493Z,12.2
2023-03-31T10:23:02.077Z,12.2
2023-03-31T10:24:01.686Z,12.2
2023-03-31T10:25:01.296Z,12.2
2023-03-31T10:26:01.880Z,12.2
2023-03-31T10:27:01.474Z,12.2
2023-03-31T10:28:02.058Z,12.3
2023-03-31T10:29:01.702Z,12.3
2023-03-31T10:30:01.355Z,12.3
2023-03-31T10:31:01.924Z,12.4
2023-03-31T10:32:01.520Z,12.5
2023-03-31T10:33:11.770Z,12.4
2023-03-31T10:34:01.646Z,12.6
2023-03-31T10:35:01.255Z,12.7
2023-03-31T10:36:01.839Z,12.9
2023-03-31T10:37:01.444Z,12.9
2023-03-31T10:38:02.850Z,12.9
2023-03-31T10:39:01.565Z,12.8
2023-03-31T10:40:01.178Z,12.9
2023-03-31T10:41:01.754Z,13
2023-03-31T10:42:01.362Z,12.9
2023-03-31T10:43:01.925Z,12.8
2023-03-31T10:44:01.514Z,12.9
2023-03-31T10:45:02.100Z,12.9
2023-03-31T10:46:01.737Z,12.8
2023-03-31T10:47:01.373Z,12.6
2023-03-31T10:48:01.990Z,12.4
2023-03-31T10:49:01.572Z,12.1
2023-03-31T10:50:01.156Z,11.9
2023-03-31T10:51:01.757Z,11.6
2023-03-31T10:52:01.364Z,11.4
2023-03-31T10:53:01.940Z,11.2
2023-03-31T10:54:01.569Z,11.2
2023-03-31T10:55:01.158Z,11.2
2023-03-31T10:56:01.763Z,11.2
2023-03-31T10:57:01.418Z,11.2
2023-03-31T10:58:01.952Z,11.2
2023-03-31T10:59:05.545Z,11.2
2023-03-31T11:00:02.098Z,11.3
2023-03-31T11:01:01.702Z,11.3
2023-03-31T11:02:01.375Z,11.3
2023-03-31T11:03:01.907Z,11.3
2023-03-31T11:04:01.612Z,11.4
2023-03-31T11:05:02.107Z,11.5
2023-03-31T11:06:01.704Z,11.4
2023-03-31T11:07:01.332Z,11.4
2023-03-31T11:08:01.912Z,11.5
2023-03-31T11:09:01.513Z,11.5
2023-03-31T11:10:02.087Z,11.6
2023-03-31T11:11:01.673Z,11.5
2023-03-31T11:12:01.286Z,11.5
2023-03-31T11:13:01.845Z,11.6
2023-03-31T11:14:01.485Z,11.8
2023-03-31T11:15:02.024Z,11.8
2023-03-31T11:16:01.692Z,11.8
2023-03-31T11:17:01.232Z,11.9
2023-03-31T11:18:01.856Z,12
2023-03-31T11:19:01.480Z,12.2
2023-03-31T11:20:02.045Z,12.1
2023-03-31T11:21:01.638Z,12.1
2023-03-31T11:22:01.230Z,12.2
2023-03-31T11:23:01.878Z,12.4
2023-03-31T11:24:01.473Z,12.5
2023-03-31T11:25:02.053Z,12.6
2023-03-31T11:26:01.650Z,12.7
2023-03-31T11:27:01.241Z,12.4
2023-03-31T11:28:01.849Z,12.4
2023-03-31T11:29:01.500Z,12.5
2023-03-31T11:30:02.029Z,12.4
2023-03-31T11:31:01.631Z,12.3
2023-03-31T11:32:01.190Z,12.1
2023-03-31T11:33:01.827Z,11.9
2023-03-31T11:34:01.498Z,11.9
2023-03-31T11:35:02.022Z,11.7
2023-03-31T11:36:01.686Z,11.5
2023-03-31T11:37:01.200Z,11.5
2023-03-31T11:38:01.797Z,11.6
2023-03-31T11:39:01.430Z,11.8
2023-03-31T11:40:01.985Z,11.9
2023-03-31T11:41:01.577Z,12
2023-03-31T11:42:01.159Z,12
2023-03-31T11:43:01.752Z,12.3
2023-03-31T11:44:01.358Z,12.5
2023-03-31T11:45:01.927Z,12.6
2023-03-31T11:46:01.583Z,12.8
2023-03-31T11:47:02.105Z,13
2023-03-31T11:48:01.767Z,13
2023-03-31T11:49:01.365Z,13.2
2023-03-31T11:50:01.955Z,13.3
2023-03-31T11:51:01.569Z,13.3
2023-03-31T11:52:01.133Z,13.3
2023-03-31T11:53:01.717Z,13.4
2023-03-31T11:54:01.312Z,13.5
2023-03-31T11:55:03.187Z,13
2023-03-31T11:56:02.032Z,13
2023-03-31T11:57:01.189Z,12.9
2023-03-31T11:58:01.734Z,12.7
2023-03-31T11:59:01.340Z,13
2023-03-31T12:00:01.916Z,13
2023-03-31T12:01:03.208Z,13.2
2023-03-31T12:02:02.013Z,13.3
2023-03-31T12:03:01.689Z,13.3
2023-03-31T12:04:01.307Z,13.3
2023-03-31T12:05:01.892Z,13.4
2023-03-31T12:06:01.700Z,13.4
2023-03-31T12:07:02.579Z,13.3
2023-03-31T12:08:01.246Z,13.3
2023-03-31T12:09:01.905Z,13.4
2023-03-31T12:10:01.508Z,13.6
2023-03-31T12:11:02.084Z,13.6
2023-03-31T12:12:01.713Z,13.6
2023-03-31T12:13:03.045Z,13.5
2023-03-31T12:14:01.779Z,13.4
2023-03-31T12:15:01.497Z,13.6
2023-03-31T12:16:02.012Z,13.8
2023-03-31T12:17:01.632Z,14
2023-03-31T12:18:01.268Z,13.9
2023-03-31T12:19:01.789Z,13.9
2023-03-31T12:20:01.378Z,13.6
2023-03-31T12:21:01.962Z,13.7
2023-03-31T12:22:01.629Z,13.6
2023-03-31T12:23:01.161Z,13.5
2023-03-31T12:24:01.737Z,13.8
2023-03-31T12:25:01.333Z,13.9
2023-03-31T12:26:01.917Z,13.5
2023-03-31T12:27:01.525Z,13.4
2023-03-31T12:28:02.095Z,13.5
2023-03-31T12:29:01.709Z,13.6
2023-03-31T12:30:01.362Z,13.7
2023-03-31T12:31:01.944Z,13.9
2023-03-31T12:32:01.558Z,13.9
2023-03-31T12:33:01.195Z,14
2023-03-31T12:34:01.727Z,14
2023-03-31T12:35:01.344Z,14.1
2023-03-31T12:36:01.945Z,14.2
2023-03-31T12:37:01.549Z,14.4
2023-03-31T12:38:01.171Z,14.3
2023-03-31T12:39:01.706Z,14.1
2023-03-31T12:40:01.296Z,14.1
2023-03-31T12:41:01.883Z,13.9
2023-03-31T12:42:01.477Z,13.8
2023-03-31T12:43:02.090Z,13.4
2023-03-31T12:44:01.688Z,13.4
2023-03-31T12:45:01.283Z,13.4
2023-03-31T12:46:01.869Z,13.6
2023-03-31T12:47:01.524Z,13.8
2023-03-31T12:48:02.075Z,13.8
2023-03-31T12:49:01.699Z,14
2023-03-31T12:50:01.289Z,13.6
2023-03-31T12:51:01.876Z,13.4
2023-03-31T12:52:01.472Z,13.5
2023-03-31T12:53:02.083Z,13.3
2023-03-31T12:54:01.702Z,13.2
2023-03-31T12:55:01.292Z,13.2
2023-03-31T12:56:01.877Z,13.2
2023-03-31T12:57:01.477Z,13.3
2023-03-31T12:58:02.073Z,13.3
2023-03-31T12:59:01.659Z,13.1
2023-03-31T13:00:01.245Z,13
2023-03-31T13:01:01.859Z,12.9
2023-03-31T13:02:01.507Z,12.7
2023-03-31T13:03:02.118Z,12.5
2023-03-31T13:04:01.751Z,12.4
2023-03-31T13:05:01.319Z,12.5
2023-03-31T13:06:01.941Z,12.5
2023-03-31T13:07:01.532Z,12.5
2023-03-31T13:08:02.119Z,12.4
2023-03-31T13:09:01.711Z,12.3
2023-03-31T13:10:01.320Z,12.5
2023-03-31T13:11:01.994Z,12.6
2023-03-31T13:12:01.554Z,12.8
2023-03-31T13:13:01.125Z,13.1
2023-03-31T13:14:01.714Z,12.9
2023-03-31T13:15:01.358Z,12.9
2023-03-31T13:16:01.897Z,13
2023-03-31T13:17:01.551Z,12.8
2023-03-31T13:18:02.120Z,12.7
2023-03-31T13:19:01.749Z,12.8
2023-03-31T13:20:01.325Z,12.9
2023-03-31T13:22:01.513Z,13.3
2023-03-31T13:23:02.080Z,13.4
2023-03-31T13:24:01.708Z,13.7
2023-03-31T13:25:01.319Z,13.8
2023-03-31T13:26:01.939Z,13.9
2023-03-31T13:27:01.548Z,13.9